createdAt,value
2023-04-14T00:02:00.097Z,56.58
2023-04-14T00:04:27.600Z,56.38
2023-04-14T00:06:56.960Z,56.58
2023-04-14T00:09:23.320Z,56.65
2023-04-14T00:11:50.596Z,56.60
2023-04-14T00:14:17.041Z,56.57
2023-04-14T00:16:43.961Z,57.31
2023-04-14T00:19:10.526Z,56.53
2023-04-14T00:21:36.939Z,57.44
2023-04-14T00:24:03.384Z,57.24
2023-04-14T00:26:32.014Z,58.11
2023-04-14T00:28:58.451Z,57.20
2023-04-14T00:31:24.998Z,56.96
2023-04-14T00:33:51.376Z,56.59
2023-04-14T00:36:17.844Z,57.05
2023-04-14T00:38:44.261Z,57.53
2023-04-14T00:41:10.613Z,58.33
2023-04-14T00:43:38.770Z,59.45
2023-04-14T00:46:06.058Z,61.11
2023-04-14T00:48:32.586Z,61.81
2023-04-14T00:50:59.346Z,60.48
2023-04-14T00:53:27.286Z,59.41
2023-04-14T00:55:53.712Z,60.00
2023-04-14T00:58:20.112Z,59.52
2023-04-14T01:00:53.653Z,60.65
2023-04-14T01:03:20.255Z,59.73
2023-04-14T01:05:46.948Z,60.95
2023-04-14T01:08:13.868Z,60.59
2023-04-14T01:10:49.410Z,61.50
2023-04-14T01:13:50.544Z,61.32
2023-04-14T01:16:29.396Z,61.87
2023-04-14T01:19:16.767Z,61.35
2023-04-14T01:21:49.799Z,61.14
2023-04-14T01:24:16.170Z,61.35
2023-04-14T01:26:43.898Z,61.61
2023-04-14T01:29:28.553Z,60.86
2023-04-14T01:32:02.758Z,60.25
2023-04-14T01:34:37.532Z,60.68
2023-04-14T01:37:13.641Z,60.73
2023-04-14T01:39:42.682Z,61.11
2023-04-14T01:42:14.857Z,61.67
2023-04-14T01:44:42.794Z,62.40
2023-04-14T01:47:13.685Z,62.66
2023-04-14T01:49:42.311Z,62.53
2023-04-14T01:52:11.391Z,62.30
2023-04-14T01:54:41.384Z,61.77
2023-04-14T01:57:10.439Z,61.73
2023-04-14T01:59:38.167Z,61.99
2023-04-14T02:02:07.818Z,61.40
2023-04-14T02:04:36.747Z,61.70
2023-04-14T02:07:05.280Z,61.19
2023-04-14T02:09:32.984Z,61.20
2023-04-14T02:12:01.079Z,61.33
2023-04-14T02:14:29.277Z,61.58
2023-04-14T02:16:57.319Z,61.74
2023-04-14T02:19:24.529Z,61.58
2023-04-14T02:21:52.215Z,61.13
2023-04-14T02:24:19.299Z,61.98
2023-04-14T02:27:03.367Z,63.01
2023-04-14T02:29:32.904Z,63.40
2023-04-14T02:32:14.704Z,63.62
2023-04-14T02:34:53.857Z,62.79
2023-04-14T02:37:27.709Z,62.51
2023-04-14T02:40:01.915Z,63.17
2023-04-14T02:42:30.254Z,62.60
2023-04-14T02:45:11.985Z,62.40
2023-04-14T02:47:41.856Z,62.67
2023-04-14T02:50:12.615Z,62.57
2023-04-14T02:52:40.592Z,62.25
2023-04-14T02:55:08.761Z,61.85
2023-04-14T02:57:35.888Z,61.57
2023-04-14T03:00:03.768Z,62.00
2023-04-14T03:02:31.696Z,61.40
2023-04-14T03:04:58.959Z,61.51
2023-04-14T03:07:27.295Z,62.00
2023-04-14T03:09:54.942Z,62.10
2023-04-14T03:12:22.357Z,62.11
2023-04-14T03:14:50.930Z,61.75
2023-04-14T03:17:20.870Z,63.12
2023-04-14T03:19:49.448Z,63.05
2023-04-14T03:22:19.629Z,63.04
2023-04-14T03:24:47.094Z,62.51
2023-04-14T03:27:16.583Z,62.90
2023-04-14T03:29:51.111Z,63.11
2023-04-14T03:32:19.207Z,63.23
2023-04-14T03:34:49.890Z,64.48
2023-04-14T03:37:20.772Z,65.23
2023-04-14T03:39:50.654Z,65.59
2023-04-14T03:42:19.518Z,66.31
2023-04-14T03:44:51.512Z,66.65
2023-04-14T03:47:19.182Z,65.65
2023-04-14T03:49:49.160Z,65.75
2023-04-14T03:52:16.970Z,66.04
2023-04-14T03:54:46.512Z,65.70
2023-04-14T03:57:17.562Z,64.88
2023-04-14T03:59:44.992Z,64.06
2023-04-14T04:02:11.913Z,65.11
2023-04-14T04:04:39.942Z,65.46
2023-04-14T04:07:10.405Z,65.42
2023-04-14T04:09:38.200Z,65.30
2023-04-14T04:12:05.737Z,65.90
2023-04-14T04:14:33.282Z,65.91
2023-04-14T04:17:05.655Z,65.52
2023-04-14T04:19:34.236Z,65.44
2023-04-14T04:22:02.165Z,64.64
2023-04-14T04:24:33.312Z,64.79
2023-04-14T04:27:01.273Z,64.61
2023-04-14T04:29:28.362Z,64.84
2023-04-14T04:31:55.647Z,64.51
2023-04-14T04:34:23.530Z,64.10
2023-04-14T04:36:50.531Z,63.89
2023-04-14T04:39:19.713Z,65.85
2023-04-14T04:41:46.409Z,65.77
2023-04-14T04:44:12.913Z,65.62
2023-04-14T04:46:55.946Z,65.10
2023-04-14T04:49:22.986Z,64.43
2023-04-14T04:51:49.722Z,66.21
2023-04-14T04:54:16.888Z,67.15
2023-04-14T04:56:43.304Z,67.65
2023-04-14T04:59:10.674Z,68.50
2023-04-14T05:01:37.302Z,68.09
2023-04-14T05:04:04.020Z,67.11
2023-04-14T05:06:30.438Z,66.84
2023-04-14T05:08:57.360Z,67.18
2023-04-14T05:11:23.761Z,67.05
2023-04-14T05:13:50.240Z,67.75
2023-04-14T05:16:17.234Z,68.45
2023-04-14T05:18:43.813Z,68.19
2023-04-14T05:21:15.405Z,68.88
2023-04-14T05:23:43.819Z,70.04
2023-04-14T05:28:42.426Z,68.75
2023-04-14T05:31:08.894Z,67.56
2023-04-14T05:33:35.468Z,66.61
2023-04-14T05:36:01.925Z,66.66
2023-04-14T05:38:28.428Z,66.62
2023-04-14T05:40:54.790Z,66.13
2023-04-14T05:43:21.153Z,66.52
2023-04-14T05:45:47.589Z,66.96
2023-04-14T05:48:14.769Z,66.73
2023-04-14T05:50:41.408Z,67.08
2023-04-14T05:53:07.801Z,66.83
2023-04-14T05:55:34.324Z,66.90
2023-04-14T05:58:00.804Z,67.21
2023-04-14T06:00:27.536Z,67.11
2023-04-14T06:02:54.170Z,67.24
2023-04-14T06:05:20.765Z,66.71
2023-04-14T06:07:47.193Z,66.69
2023-04-14T06:10:13.680Z,66.64
2023-04-14T06:12:40.066Z,66.40
2023-04-14T06:15:07.003Z,66.60
2023-04-14T06:17:33.826Z,66.04
2023-04-14T06:20:00.257Z,65.88
2023-04-14T06:23:04.613Z,66.24
2023-04-14T06:25:31.065Z,66.12
2023-04-14T06:27:57.437Z,65.92
2023-04-14T06:30:25.654Z,66.11
2023-04-14T06:32:54.258Z,66.35
2023-04-14T06:35:32.288Z,67.59
2023-04-14T06:37:59.202Z,66.79
2023-04-14T06:40:25.626Z,67.52
2023-04-14T06:42:52.090Z,67.18
2023-04-14T06:45:19.496Z,66.41
2023-04-14T06:47:46.028Z,66.77
2023-04-14T06:50:12.556Z,66.78
2023-04-14T06:52:38.966Z,66.64
2023-04-14T06:55:06.578Z,66.77
2023-04-14T06:57:33.069Z,66.78
2023-04-14T06:59:59.549Z,67.18
2023-04-14T07:02:26.024Z,66.53
2023-04-14T07:04:52.524Z,67.24
2023-04-14T07:07:19.017Z,66.59
2023-04-14T07:09:45.589Z,65.85
2023-04-14T07:12:13.945Z,66.68
2023-04-14T07:14:42.501Z,66.22
2023-04-14T07:17:09.426Z,65.83
2023-04-14T07:19:36.080Z,65.99
2023-04-14T07:22:02.511Z,66.93
2023-04-14T07:24:28.971Z,67.07
2023-04-14T07:26:57.564Z,66.22
2023-04-14T07:29:24.032Z,66.61
2023-04-14T07:31:50.650Z,66.34
2023-04-14T07:34:17.261Z,66.73
2023-04-14T07:36:43.647Z,65.95
2023-04-14T07:39:10.276Z,65.27
2023-04-14T07:41:36.758Z,66.49
2023-04-14T07:44:03.433Z,66.70
2023-04-14T07:46:30.322Z,65.85
2023-04-14T07:48:56.848Z,64.89
2023-04-14T07:51:23.205Z,65.36
2023-04-14T07:53:50.986Z,64.75
2023-04-14T07:56:17.345Z,62.74
2023-04-14T07:58:43.780Z,62.59
2023-04-14T08:01:10.507Z,63.75
2023-04-14T08:03:37.743Z,64.36
2023-04-14T08:06:07.993Z,64.80
2023-04-14T08:08:35.273Z,63.84
2023-04-14T08:11:01.769Z,64.28
2023-04-14T08:13:30.649Z,65.22
2023-04-14T08:15:57.289Z,65.10
2023-04-14T08:18:23.681Z,65.43
2023-04-14T08:20:50.210Z,65.53
2023-04-14T08:23:16.967Z,64.06
2023-04-14T08:25:44.470Z,61.85
2023-04-14T08:28:11.051Z,61.75
2023-04-14T08:30:37.551Z,61.69
2023-04-14T08:33:04.300Z,61.37
2023-04-14T08:35:38.890Z,61.13
2023-04-14T08:38:08.578Z,60.19
2023-04-14T08:40:43.944Z,61.07
2023-04-14T08:43:13.134Z,58.79
2023-04-14T08:45:42.059Z,56.46
2023-04-14T08:48:11.547Z,55.11
2023-04-14T08:50:45.938Z,56.28
2023-04-14T08:53:13.404Z,56.05
2023-04-14T08:55:43.087Z,54.42
2023-04-14T08:58:12.268Z,54.78
2023-04-14T09:00:40.315Z,55.04
2023-04-14T09:03:08.865Z,55.17
2023-04-14T09:05:36.291Z,53.65
2023-04-14T09:08:03.992Z,53.76
2023-04-14T09:10:31.258Z,54.13
2023-04-14T09:12:57.720Z,55.86
2023-04-14T09:15:27.324Z,54.68
2023-04-14T09:17:55.110Z,53.44
2023-04-14T09:20:36.314Z,54.42
2023-04-14T09:23:08.151Z,52.34
2023-04-14T09:25:34.628Z,52.87
2023-04-14T09:28:01.244Z,53.32
2023-04-14T09:30:28.778Z,53.50
2023-04-14T09:32:58.902Z,52.91
2023-04-14T09:35:47.583Z,51.40
2023-04-14T09:38:15.034Z,49.37
2023-04-14T09:40:47.544Z,49.59
2023-04-14T09:43:27.603Z,49.75
2023-04-14T09:45:55.252Z,49.72
2023-04-14T09:48:22.308Z,50.02
2023-04-14T09:51:02.033Z,48.21
2023-04-14T09:53:30.546Z,48.92
2023-04-14T09:56:02.844Z,47.48
2023-04-14T09:58:34.517Z,46.69
2023-04-14T10:01:04.859Z,47.04
2023-04-14T10:03:44.281Z,47.81
2023-04-14T10:06:13.491Z,46.66
2023-04-14T10:08:41.850Z,48.46
2023-04-14T10:11:14.753Z,46.51
2023-04-14T10:13:41.435Z,45.14
2023-04-14T10:16:08.827Z,46.09
2023-04-14T10:18:36.067Z,44.53
2023-04-14T10:21:03.788Z,43.32
2023-04-14T10:23:31.670Z,43.07
2023-04-14T10:25:58.335Z,42.49
2023-04-14T10:28:26.220Z,43.56
2023-04-14T10:30:55.974Z,43.08
2023-04-14T10:33:32.175Z,42.31
2023-04-14T10:36:03.802Z,41.00
2023-04-14T10:38:44.432Z,42.00
2023-04-14T10:41:11.757Z,40.54
2023-04-14T10:43:39.526Z,42.61
2023-04-14T10:46:07.850Z,39.10
2023-04-14T10:48:36.647Z,36.44
2023-04-14T10:51:09.679Z,32.54
2023-04-14T10:53:50.525Z,31.95
2023-04-14T10:56:21.448Z,29.86
2023-04-14T10:58:59.082Z,30.37
2023-04-14T11:01:31.792Z,29.44
2023-04-14T11:04:16.755Z,30.19
2023-04-14T11:06:46.784Z,28.33
2023-04-14T11:09:26.451Z,29.76
2023-04-14T11:11:55.352Z,30.17
2023-04-14T11:14:30.593Z,27.88
2023-04-14T11:17:05.095Z,28.67
2023-04-14T11:19:34.618Z,26.73
2023-04-14T11:22:01.298Z,26.44
2023-04-14T11:24:28.820Z,24.93
2023-04-14T11:26:57.820Z,24.09
2023-04-14T11:29:27.001Z,25.41
2023-04-14T11:32:37.484Z,23.95
2023-04-14T11:35:08.853Z,24.14
2023-04-14T11:37:36.336Z,24.51
2023-04-14T11:40:05.468Z,24.34
2023-04-14T11:42:33.732Z,24.73
2023-04-14T11:45:00.184Z,25.87
2023-04-14T11:47:27.016Z,24.81
2023-04-14T11:49:55.995Z,24.46
2023-04-14T11:52:22.836Z,24.55
2023-04-14T11:54:49.490Z,25.58
2023-04-14T11:57:18.817Z,25.52
2023-04-14T11:59:46.938Z,27.17
2023-04-14T12:02:21.991Z,27.75
2023-04-14T12:04:51.130Z,26.75
2023-04-14T12:07:19.924Z,27.78
2023-04-14T12:09:49.315Z,25.50
2023-04-14T12:12:19.949Z,26.29
2023-04-14T12:14:48.420Z,28.00
2023-04-14T12:17:15.814Z,25.94
2023-04-14T12:19:42.833Z,26.00
2023-04-14T12:22:09.562Z,26.67
2023-04-14T12:24:39.870Z,26.41
2023-04-14T12:27:07.142Z,27.57
2023-04-14T12:29:34.806Z,26.74
2023-04-14T12:32:14.960Z,27.00
2023-04-14T12:34:52.023Z,28.57
2023-04-14T12:37:25.491Z,26.40
2023-04-14T12:39:54.174Z,26.58
2023-04-14T12:42:20.626Z,27.79
2023-04-14T12:45:00.757Z,27.80
2023-04-14T12:47:32.384Z,26.63
2023-04-14T12:50:21.959Z,27.62
2023-04-14T12:52:48.479Z,26.94
2023-04-14T12:55:23.448Z,27.43
2023-04-14T12:57:59.544Z,27.63
2023-04-14T13:00:27.644Z,28.60
2023-04-14T13:02:58.081Z,27.49
2023-04-14T13:05:24.562Z,29.09
2023-04-14T13:07:50.913Z,28.88
2023-04-14T13:10:17.313Z,25.74
2023-04-14T13:12:43.704Z,28.25
2023-04-14T13:16:12.002Z,26.82
2023-04-14T13:17:57.008Z,27.28
2023-04-14T13:20:23.501Z,26.96
2023-04-14T13:22:49.841Z,26.96
2023-04-14T13:25:16.865Z,25.53
2023-04-14T13:27:43.301Z,27.32
2023-04-14T13:30:10.316Z,27.37
2023-04-14T13:32:36.724Z,25.38
2023-04-14T13:35:03.931Z,25.25
2023-04-14T13:37:30.409Z,27.42
2023-04-14T13:39:56.796Z,25.50
2023-04-14T13:42:23.154Z,26.97
2023-04-14T13:44:49.992Z,27.44
2023-04-14T13:47:18.666Z,27.61
2023-04-14T13:49:45.061Z,28.76
2023-04-14T13:52:11.607Z,29.11
2023-04-14T13:54:37.997Z,29.08
2023-04-14T13:57:04.462Z,29.33
2023-04-14T13:59:30.962Z,29.57
2023-04-14T14:01:59.936Z,28.98
2023-04-14T14:04:28.361Z,27.79
2023-04-14T14:06:54.907Z,29.51
2023-04-14T14:09:21.250Z,28.52
2023-04-14T14:11:47.676Z,26.91
2023-04-14T14:14:14.794Z,28.02
2023-04-14T14:16:41.385Z,23.64
2023-04-14T14:19:09.886Z,25.79
2023-04-14T14:21:36.530Z,25.04
2023-04-14T14:24:03.246Z,24.18
2023-04-14T14:26:29.870Z,27.00
2023-04-14T14:28:56.475Z,28.60
2023-04-14T14:31:23.006Z,28.54
2023-04-14T14:33:49.372Z,27.75
2023-04-14T14:36:15.812Z,23.80
2023-04-14T14:38:42.202Z,24.47
2023-04-14T14:41:08.600Z,24.11
2023-04-14T14:43:35.070Z,25.21
2023-04-14T14:46:01.647Z,25.68
2023-04-14T14:48:28.136Z,24.93
2023-04-14T14:50:54.521Z,25.47
2023-04-14T14:53:20.849Z,25.18
2023-04-14T14:55:47.197Z,25.86
2023-04-14T14:58:13.535Z,25.84
2023-04-14T15:00:39.989Z,25.83
2023-04-14T15:03:06.710Z,24.34
2023-04-14T15:05:33.638Z,26.00
2023-04-14T15:08:00.290Z,26.48
2023-04-14T15:10:26.835Z,25.02
2023-04-14T15:12:53.776Z,25.45
2023-04-14T15:15:20.204Z,26.15
2023-04-14T15:17:46.824Z,25.31
2023-04-14T15:20:13.325Z,25.14
2023-04-14T15:22:40.149Z,26.37
2023-04-14T15:25:09.115Z,26.43
2023-04-14T15:27:35.948Z,27.51
2023-04-14T15:30:03.211Z,26.87
2023-04-14T15:32:29.604Z,27.81
2023-04-14T15:34:56.189Z,28.33
2023-04-14T15:37:22.666Z,28.70
2023-04-14T15:39:50.057Z,28.06
2023-04-14T15:42:16.408Z,29.20
2023-04-14T15:44:43.018Z,28.43
2023-04-14T15:47:09.455Z,28.70
2023-04-14T15:49:35.941Z,28.74
2023-04-14T15:52:02.616Z,29.38
2023-04-14T15:54:29.039Z,29.47
2023-04-14T15:56:55.435Z,28.93
2023-04-14T15:59:22.295Z,28.54
2023-04-14T16:01:48.825Z,27.74
2023-04-14T16:04:15.435Z,28.95
2023-04-14T16:06:41.926Z,28.17
2023-04-14T16:09:08.347Z,28.23
2023-04-14T16:11:34.882Z,29.82
2023-04-14T16:14:01.648Z,27.27
2023-04-14T16:16:28.478Z,29.03
2023-04-14T16:18:54.999Z,29.30
2023-04-14T16:21:21.509Z,29.15
2023-04-14T16:23:47.976Z,29.75
2023-04-14T16:26:15.775Z,29.94
2023-04-14T16:28:42.401Z,29.12
2023-04-14T16:31:09.104Z,29.86
2023-04-14T16:33:35.996Z,30.05
2023-04-14T16:36:07.150Z,29.86
2023-04-14T16:38:36.136Z,29.37
2023-04-14T16:41:03.336Z,29.72
2023-04-14T16:43:29.921Z,29.66
2023-04-14T16:46:04.024Z,30.51
2023-04-14T16:48:32.291Z,31.14
2023-04-14T16:51:09.222Z,31.40
2023-04-14T16:53:36.789Z,31.67
2023-04-14T16:56:05.628Z,32.07
2023-04-14T16:58:32.141Z,32.24
2023-04-14T17:00:58.810Z,31.45
2023-04-14T17:03:25.489Z,31.14
2023-04-14T17:05:52.169Z,31.54
2023-04-14T17:08:18.536Z,31.97
2023-04-14T17:10:45.089Z,31.92
2023-04-14T17:13:11.451Z,31.48
2023-04-14T17:15:38.617Z,31.75
2023-04-14T17:18:05.106Z,29.46
2023-04-14T17:20:31.789Z,32.39
2023-04-14T17:23:01.080Z,30.80
2023-04-14T17:25:27.718Z,30.82
2023-04-14T17:27:54.069Z,31.95
2023-04-14T17:30:20.400Z,32.58
2023-04-14T17:32:48.740Z,32.68
2023-04-14T17:35:15.240Z,32.48
2023-04-14T17:37:41.696Z,32.53
2023-04-14T17:40:08.566Z,34.03
2023-04-14T17:42:36.047Z,33.20
2023-04-14T17:45:02.456Z,34.58
2023-04-14T17:47:28.985Z,35.00
2023-04-14T17:49:55.537Z,35.92
2023-04-14T17:52:22.204Z,35.62
2023-04-14T17:54:49.803Z,36.52
2023-04-14T17:57:17.127Z,35.30
2023-04-14T17:59:44.785Z,36.29
2023-04-14T18:02:15.468Z,36.46
2023-04-14T18:04:42.029Z,37.31
2023-04-14T18:07:08.350Z,38.29
2023-04-14T18:09:34.931Z,37.02
2023-04-14T18:12:01.428Z,37.37
2023-04-14T18:14:27.828Z,37.67
2023-04-14T18:16:54.561Z,38.04
2023-04-14T18:19:22.159Z,38.76
2023-04-14T18:21:49.155Z,41.86
2023-04-14T18:26:45.063Z,39.94
2023-04-14T18:29:11.991Z,39.82
2023-04-14T18:31:38.497Z,40.55
2023-04-14T18:34:05.746Z,41.74
2023-04-14T18:36:32.513Z,40.65
2023-04-14T18:39:00.284Z,40.45
2023-04-14T18:41:27.014Z,41.06
2023-04-14T18:43:53.630Z,41.46
2023-04-14T18:46:21.173Z,42.68
2023-04-14T18:48:48.351Z,41.84
2023-04-14T18:51:15.964Z,41.53
2023-04-14T18:53:44.556Z,41.10
2023-04-14T18:56:11.013Z,42.65
2023-04-14T18:58:38.016Z,42.15
2023-04-14T19:01:04.465Z,42.57
2023-04-14T19:03:31.700Z,41.78
2023-04-14T19:05:59.067Z,41.73
2023-04-14T19:08:25.702Z,42.15
2023-04-14T19:10:52.383Z,42.21
2023-04-14T19:13:19.571Z,43.49
2023-04-14T19:15:46.088Z,43.10
2023-04-14T19:18:12.511Z,43.73
2023-04-14T19:20:38.837Z,43.54
2023-04-14T19:23:05.232Z,44.17
2023-04-14T19:25:31.640Z,44.05
2023-04-14T19:28:01.069Z,44.55
2023-04-14T19:30:28.940Z,43.87
2023-04-14T19:32:55.316Z,44.29
2023-04-14T19:35:22.423Z,43.53
2023-04-14T19:37:48.795Z,44.56
2023-04-14T19:40:15.260Z,43.77
2023-04-14T19:42:41.601Z,44.54
2023-04-14T19:45:08.517Z,45.62
2023-04-14T19:47:35.019Z,44.45
2023-04-14T19:50:02.428Z,45.55
2023-04-14T19:52:28.789Z,45.81
2023-04-14T19:54:56.698Z,45.44
2023-04-14T19:57:23.901Z,46.33
2023-04-14T19:59:50.275Z,45.54
2023-04-14T20:02:16.820Z,44.21
2023-04-14T20:04:45.021Z,44.73
2023-04-14T20:07:11.529Z,44.97
2023-04-14T20:09:39.712Z,45.30
2023-04-14T20:12:06.114Z,45.74
2023-04-14T20:14:32.998Z,45.41
2023-04-14T20:16:59.525Z,44.90
2023-04-14T20:19:26.116Z,45.47
2023-04-14T20:21:52.457Z,46.12
2023-04-14T20:24:18.882Z,45.42
2023-04-14T20:26:45.618Z,45.94
2023-04-14T20:29:12.813Z,46.04
2023-04-14T20:31:39.658Z,44.21
2023-04-14T20:34:06.307Z,43.40
2023-04-14T20:36:35.671Z,44.70
2023-04-14T20:39:04.690Z,44.67
2023-04-14T20:41:32.487Z,44.14
2023-04-14T20:43:58.967Z,44.45
2023-04-14T20:46:25.381Z,45.45
2023-04-14T20:48:55.016Z,45.75
2023-04-14T20:51:21.448Z,46.19
2023-04-14T20:53:48.478Z,45.39
2023-04-14T20:56:14.916Z,45.42
2023-04-14T20:58:41.276Z,44.84
2023-04-14T21:01:07.796Z,44.64
2023-04-14T21:03:34.661Z,44.72
2023-04-14T21:06:01.939Z,46.76
2023-04-14T21:08:29.652Z,45.39
2023-04-14T21:11:15.703Z,46.34
2023-04-14T21:15:26.594Z,46.62
2023-04-14T21:16:29.901Z,48.09
2023-04-14T21:18:56.707Z,47.01
2023-04-14T21:21:23.118Z,47.11
2023-04-14T21:23:49.453Z,47.19
2023-04-14T21:26:16.535Z,48.19
2023-04-14T21:28:43.013Z,47.32
2023-04-14T21:31:10.260Z,48.74
2023-04-14T21:33:39.306Z,48.50
2023-04-14T21:36:05.856Z,47.96
2023-04-14T21:38:32.320Z,47.91
2023-04-14T21:40:58.751Z,48.13
2023-04-14T21:43:25.073Z,48.69
2023-04-14T21:45:51.839Z,48.76
2023-04-14T21:48:19.009Z,48.62
2023-04-14T21:50:45.629Z,48.57
2023-04-14T21:53:12.324Z,48.50
2023-04-14T21:55:38.734Z,48.79
2023-04-14T21:58:05.556Z,49.45
2023-04-14T22:00:32.024Z,49.02
2023-04-14T22:02:58.668Z,49.44
2023-04-14T22:05:25.188Z,49.77
2023-04-14T22:07:51.555Z,49.22
2023-04-14T22:10:17.982Z,49.43
2023-04-14T22:12:45.574Z,49.90
2023-04-14T22:15:11.972Z,49.85
2023-04-14T22:17:38.802Z,49.64
2023-04-14T22:20:06.231Z,50.46
2023-04-14T22:22:32.927Z,50.27
2023-04-14T22:24:59.297Z,49.63
2023-04-14T22:27:26.028Z,49.87
2023-04-14T22:29:52.403Z,50.06
2023-04-14T22:32:18.743Z,50.70
2023-04-14T22:34:45.691Z,51.38
2023-04-14T22:37:12.074Z,51.81
2023-04-14T22:39:38.401Z,51.13
2023-04-14T22:42:05.153Z,51.57
2023-04-14T22:44:31.636Z,51.79
2023-04-14T22:46:58.376Z,52.24
2023-04-14T22:49:25.114Z,52.49
2023-04-14T22:51:51.765Z,52.75
2023-04-14T22:54:18.127Z,51.83
2023-04-14T22:56:44.474Z,52.03
2023-04-14T22:59:10.828Z,52.40
2023-04-14T23:01:37.385Z,52.48
2023-04-14T23:04:03.902Z,52.06
2023-04-14T23:06:30.356Z,52.74
2023-04-14T23:08:57.013Z,53.03
2023-04-14T23:11:23.484Z,52.04
2023-04-14T23:13:50.101Z,52.93
2023-04-14T23:16:20.109Z,53.82
2023-04-14T23:18:52.203Z,53.14
2023-04-14T23:21:20.589Z,54.20
2023-04-14T23:23:46.995Z,56.02
2023-04-14T23:26:13.481Z,56.43
2023-04-14T23:28:39.876Z,56.20
2023-04-14T23:31:06.460Z,56.34
2023-04-14T23:33:32.865Z,54.93
2023-04-14T23:35:59.300Z,54.78
2023-04-14T23:38:26.122Z,54.69
2023-04-14T23:40:58.496Z,54.44
2023-04-14T23:43:25.789Z,54.64
2023-04-14T23:45:52.494Z,53.60
2023-04-14T23:48:18.979Z,53.88
2023-04-14T23:50:59.663Z,54.62
2023-04-14T23:53:31.704Z,54.20
2023-04-14T23:55:58.476Z,54.63
2023-04-14T23:58:26.938Z,54.08
